createdAt,value
2023-05-10T00:00:57.779Z,3.924
2023-05-10T00:01:58.032Z,3.887
2023-05-10T00:02:59.624Z,3.85
2023-05-10T00:04:00.067Z,3.96
2023-05-10T00:05:00.568Z,4.05
2023-05-10T00:06:01.765Z,4.041
2023-05-10T00:07:02.521Z,3.985
2023-05-10T00:08:03.571Z,4.005
2023-05-10T00:09:04.596Z,4.004
2023-05-10T00:10:04.356Z,4.042
2023-05-10T00:11:05.292Z,4.061
2023-05-10T00:12:05.319Z,4.04
2023-05-10T00:13:07.000Z,3.953
2023-05-10T00:14:07.385Z,4.007
2023-05-10T00:15:07.842Z,4.006
2023-05-10T00:16:08.123Z,3.989
2023-05-10T00:17:09.616Z,4.044
2023-05-10T00:18:09.839Z,4.008
2023-05-10T00:19:11.327Z,4.008
2023-05-10T00:20:11.725Z,4.026
2023-05-10T00:21:12.071Z,4.061
2023-05-10T00:22:12.469Z,3.989
2023-05-10T00:23:13.156Z,3.972
2023-05-10T00:24:13.667Z,3.972
2023-05-10T00:25:14.390Z,4.044
2023-05-10T00:26:15.475Z,4.026
2023-05-10T00:27:15.771Z,4.044
2023-05-10T00:28:16.631Z,4.027
2023-05-10T00:29:17.446Z,4.043
2023-05-10T00:30:19.281Z,3.957
2023-05-10T00:31:18.902Z,4
2023-05-10T00:32:19.836Z,3.965
2023-05-10T00:33:20.559Z,3.965
2023-05-10T00:34:20.679Z,4.018
2023-05-10T00:35:22.372Z,4.019
2023-05-10T00:36:22.472Z,4.071
2023-05-10T00:37:24.489Z,4.056
2023-05-10T00:38:24.134Z,3.93
2023-05-10T00:39:26.626Z,3.932
2023-05-10T00:40:27.739Z,3.861
2023-05-10T00:41:29.035Z,3.844
2023-05-10T00:42:30.708Z,3.933
2023-05-10T00:43:31.201Z,3.862
2023-05-10T00:44:32.195Z,3.825
2023-05-10T00:45:33.128Z,3.853
2023-05-10T00:46:34.620Z,3.871
2023-05-10T00:47:35.111Z,3.768
2023-05-10T00:48:35.149Z,3.822
2023-05-10T00:49:36.340Z,3.706
2023-05-10T00:50:37.511Z,3.706
2023-05-10T00:51:37.813Z,3.724
2023-05-10T00:52:39.377Z,3.653
2023-05-10T00:53:40.083Z,3.635
2023-05-10T00:54:41.237Z,3.628
2023-05-10T00:55:42.277Z,3.672
2023-05-10T00:56:42.404Z,3.638
2023-05-10T00:57:43.045Z,3.612
2023-05-10T00:58:42.847Z,3.595
2023-05-10T00:59:44.111Z,3.63
2023-05-10T01:00:43.873Z,3.543
2023-05-10T01:01:45.212Z,3.56
2023-05-10T01:02:45.606Z,3.579
2023-05-10T01:03:47.810Z,3.56
2023-05-10T01:04:47.166Z,3.455
2023-05-10T01:05:50.191Z,3.437
2023-05-10T01:06:50.303Z,3.456
2023-05-10T01:07:51.877Z,3.491
2023-05-10T01:08:52.399Z,3.439
2023-05-10T01:09:53.280Z,3.446
2023-05-10T01:10:52.789Z,3.412
2023-05-10T01:11:54.686Z,3.457
2023-05-10T01:12:55.111Z,3.378
2023-05-10T01:13:55.534Z,3.361
2023-05-10T01:14:55.872Z,3.378
2023-05-10T01:15:55.851Z,3.361
2023-05-10T01:16:57.440Z,3.352
2023-05-10T01:17:58.820Z,3.354
2023-05-10T01:19:00.460Z,3.355
2023-05-10T01:20:00.644Z,3.291
2023-05-10T01:21:02.454Z,3.334
2023-05-10T01:22:02.808Z,3.334
2023-05-10T01:23:03.033Z,3.282
2023-05-10T01:24:04.622Z,3.371
2023-05-10T01:25:06.301Z,3.44
2023-05-10T01:26:06.459Z,3.318
2023-05-10T01:27:07.854Z,3.336
2023-05-10T01:28:08.893Z,3.318
2023-05-10T01:29:10.567Z,3.336
2023-05-10T01:30:15.818Z,3.356
2023-05-10T01:31:12.484Z,3.355
2023-05-10T01:32:12.867Z,3.284
2023-05-10T01:33:13.021Z,3.248
2023-05-10T01:34:14.838Z,3.284
2023-05-10T01:35:14.853Z,3.233
2023-05-10T01:36:14.502Z,3.268
2023-05-10T01:37:15.434Z,3.198
2023-05-10T01:38:16.263Z,3.17
2023-05-10T01:39:16.365Z,3.207
2023-05-10T01:40:18.364Z,3.153
2023-05-10T01:41:19.389Z,3.173
2023-05-10T01:42:20.988Z,3.172
2023-05-10T01:43:21.511Z,3.162
2023-05-10T01:44:21.428Z,3.17
2023-05-10T01:45:22.882Z,3.144
2023-05-10T01:46:24.728Z,3.137
2023-05-10T01:47:25.977Z,3.197
2023-05-10T01:48:27.695Z,3.198
2023-05-10T01:49:28.954Z,3.181
2023-05-10T01:50:29.054Z,3.127
2023-05-10T01:51:30.868Z,3.163
2023-05-10T01:52:32.518Z,3.147
2023-05-10T01:53:34.415Z,3.085
2023-05-10T01:54:36.060Z,3.103
2023-05-10T01:55:37.226Z,3.085
2023-05-10T01:56:37.105Z,3.068
2023-05-10T01:57:38.276Z,2.997
2023-05-10T01:58:38.844Z,3.067
2023-05-10T01:59:41.296Z,3.103
2023-05-10T02:00:41.974Z,3.076
2023-05-10T02:01:43.115Z,3.06
2023-05-10T02:02:45.650Z,3.095
2023-05-10T02:03:46.537Z,3.075
2023-05-10T02:04:47.770Z,3.057
2023-05-10T02:05:49.126Z,3.129
2023-05-10T02:06:50.429Z,3.095
2023-05-10T02:07:50.399Z,3.078
2023-05-10T02:08:51.504Z,3.092
2023-05-10T02:09:52.186Z,3.024
2023-05-10T02:10:54.402Z,3.078
2023-05-10T02:11:56.148Z,3.043
2023-05-10T02:12:57.247Z,3.042
2023-05-10T02:13:58.282Z,2.991
2023-05-10T02:14:59.558Z,3.041
2023-05-10T02:16:00.365Z,3.042
2023-05-10T02:16:59.709Z,3.111
2023-05-10T02:18:01.564Z,3.163
2023-05-10T02:19:03.211Z,3.146
2023-05-10T02:20:04.882Z,3.145
2023-05-10T02:21:06.547Z,3.146
2023-05-10T02:22:06.728Z,3.178
2023-05-10T02:23:06.890Z,3.075
2023-05-10T02:24:07.693Z,3.145
2023-05-10T02:25:07.918Z,3.11
2023-05-10T02:26:07.868Z,3.128
2023-05-10T02:27:08.237Z,3.058
2023-05-10T02:28:08.772Z,3.092
2023-05-10T02:29:10.872Z,3.127
2023-05-10T02:30:12.398Z,3.092
2023-05-10T02:31:12.510Z,3.093
2023-05-10T02:32:14.825Z,3.077
2023-05-10T02:33:16.515Z,3.075
2023-05-10T02:34:17.842Z,3.083
2023-05-10T02:35:18.790Z,3.074
2023-05-10T02:36:19.491Z,3.108
2023-05-10T02:37:21.782Z,3.107
2023-05-10T02:38:22.634Z,3.04
2023-05-10T02:39:23.761Z,3.075
2023-05-10T02:40:28.588Z,3.092
2023-05-10T02:41:26.302Z,3.09
2023-05-10T02:42:27.123Z,3.056
2023-05-10T02:43:28.764Z,3.124
2023-05-10T02:44:30.464Z,3.072
2023-05-10T02:45:30.984Z,3.107
2023-05-10T02:46:31.865Z,3.141
2023-05-10T02:47:32.691Z,3.124
2023-05-10T02:48:33.927Z,3.106
2023-05-10T02:49:35.452Z,3.089
2023-05-10T02:50:37.704Z,3.138
2023-05-10T02:51:37.647Z,3.14
2023-05-10T02:52:38.437Z,3.154
2023-05-10T02:53:40.659Z,3.12
2023-05-10T02:54:40.237Z,2.984
2023-05-10T02:55:41.124Z,3.085
2023-05-10T02:56:41.732Z,3.152
2023-05-10T02:57:42.964Z,3.202
2023-05-10T02:58:42.728Z,3.218
2023-05-10T02:59:43.774Z,3.185
2023-05-10T03:00:43.638Z,3.21
2023-05-10T03:01:45.640Z,3.149
2023-05-10T03:02:46.723Z,3.181
2023-05-10T03:03:47.280Z,3.264
2023-05-10T03:04:47.141Z,3.148
2023-05-10T03:05:47.081Z,3.195
2023-05-10T03:06:48.437Z,3.161
2023-05-10T03:07:49.657Z,3.203
2023-05-10T03:08:50.069Z,3.12
2023-05-10T03:09:51.289Z,3.137
2023-05-10T03:10:52.023Z,3.104
2023-05-10T03:11:52.982Z,3.06
2023-05-10T03:12:53.202Z,3.175
2023-05-10T03:13:54.230Z,3.132
2023-05-10T03:14:56.056Z,3.116
2023-05-10T03:15:57.840Z,3.165
2023-05-10T03:16:59.724Z,3.165
2023-05-10T03:18:00.021Z,3.134
2023-05-10T03:19:00.386Z,3.083
2023-05-10T03:20:01.235Z,3.088
2023-05-10T03:21:02.687Z,3.148
2023-05-10T03:22:03.210Z,3.131
2023-05-10T03:23:04.995Z,3.063
2023-05-10T03:24:05.431Z,3.052
2023-05-10T03:25:06.934Z,3.102
2023-05-10T03:26:07.771Z,3.15
2023-05-10T03:27:09.228Z,3.103
2023-05-10T03:28:08.783Z,3.036
2023-05-10T03:29:11.711Z,3.085
2023-05-10T03:30:11.368Z,3.119
2023-05-10T03:31:11.869Z,3.168
2023-05-10T03:32:11.977Z,3.103
2023-05-10T03:33:13.551Z,3.102
2023-05-10T03:34:13.012Z,3.07
2023-05-10T03:35:14.759Z,3.103
2023-05-10T03:36:17.272Z,3.185
2023-05-10T03:37:19.342Z,3.119
2023-05-10T03:38:21.529Z,3.116
2023-05-10T03:39:23.348Z,3.164
2023-05-10T03:40:22.877Z,3.115
2023-05-10T03:41:25.158Z,3.067
2023-05-10T03:42:26.592Z,3.131
2023-05-10T03:43:27.539Z,3.066
2023-05-10T03:44:29.216Z,3.099
2023-05-10T03:45:30.863Z,3.099
2023-05-10T03:46:30.339Z,3.066
2023-05-10T03:47:32.258Z,3.05
2023-05-10T03:48:34.918Z,3.067
2023-05-10T03:49:36.177Z,3.117
2023-05-10T03:50:37.863Z,3.164
2023-05-10T03:51:40.679Z,3.1
2023-05-10T03:52:42.104Z,3.099
2023-05-10T03:53:43.911Z,3.131
2023-05-10T03:54:45.337Z,3.064
2023-05-10T03:55:46.265Z,3.05
2023-05-10T03:56:47.555Z,2.982
2023-05-10T03:57:48.857Z,3.014
2023-05-10T03:58:49.894Z,3.08
2023-05-10T03:59:52.189Z,3.079
2023-05-10T04:00:53.482Z,3.064
2023-05-10T04:01:56.154Z,3.09
2023-05-10T04:02:58.068Z,3.074
2023-05-10T04:03:59.320Z,3.041
2023-05-10T04:04:59.291Z,3.021
2023-05-10T04:06:01.220Z,2.972
2023-05-10T04:07:02.883Z,3.004
2023-05-10T04:08:05.335Z,2.939
2023-05-10T04:09:06.399Z,3.005
2023-05-10T04:10:09.185Z,3.021
2023-05-10T04:11:10.671Z,3.137
2023-05-10T04:12:12.599Z,3.107
2023-05-10T04:13:14.543Z,2.992
2023-05-10T04:14:16.501Z,3.009
2023-05-10T04:15:18.354Z,3.009
2023-05-10T04:16:20.405Z,2.992
2023-05-10T04:17:22.020Z,3.09
2023-05-10T04:18:22.852Z,3.026
2023-05-10T04:19:25.349Z,3.026
2023-05-10T04:20:26.852Z,3.042
2023-05-10T04:21:28.222Z,3.009
2023-05-10T04:22:30.593Z,3.01
2023-05-10T04:23:32.732Z,3.009
2023-05-10T04:24:34.065Z,3.01
2023-05-10T04:25:34.769Z,2.992
2023-05-10T04:26:35.850Z,3.091
2023-05-10T04:27:38.032Z,3.127
2023-05-10T04:28:40.242Z,3.078
2023-05-10T04:29:42.214Z,3.012
2023-05-10T04:30:44.406Z,3.045
2023-05-10T04:31:44.881Z,3.061
2023-05-10T04:32:44.849Z,3.028
2023-05-10T04:33:47.263Z,3.061
2023-05-10T04:34:49.126Z,3.071
2023-05-10T04:35:50.731Z,3.038
2023-05-10T04:36:51.771Z,3.005
2023-05-10T04:37:54.432Z,3.106
2023-05-10T04:38:55.987Z,3.167
2023-05-10T04:39:57.140Z,3.101
2023-05-10T04:40:58.900Z,3.117
2023-05-10T04:42:01.588Z,3.183
2023-05-10T04:43:02.492Z,3.085
2023-05-10T04:44:05.282Z,3.087
2023-05-10T04:45:06.519Z,3.051
2023-05-10T04:46:07.813Z,3.035
2023-05-10T04:47:10.473Z,3.09
2023-05-10T04:48:09.951Z,3.104
2023-05-10T04:49:11.408Z,3.074
2023-05-10T04:50:12.736Z,3.182
2023-05-10T04:51:13.325Z,3.115
2023-05-10T04:52:14.888Z,3.129
2023-05-10T04:53:16.795Z,3.098
2023-05-10T04:54:18.581Z,3.117
2023-05-10T04:55:20.705Z,3.151
2023-05-10T04:56:22.170Z,3.118
2023-05-10T04:57:24.191Z,3.151
2023-05-10T04:58:26.157Z,3.105
2023-05-10T04:59:27.766Z,3.155
2023-05-10T05:00:28.030Z,3.29
2023-05-10T05:01:29.358Z,3.257
2023-05-10T05:02:30.800Z,3.158
2023-05-10T05:03:32.567Z,3.107
2023-05-10T05:04:34.565Z,3.156
2023-05-10T05:05:36.470Z,3.156
2023-05-10T05:06:38.297Z,3.243
2023-05-10T05:07:40.240Z,3.174
2023-05-10T05:08:42.064Z,3.21
2023-05-10T05:09:44.217Z,3.253
2023-05-10T05:10:46.292Z,3.237
2023-05-10T05:11:46.536Z,3.195
2023-05-10T05:12:47.833Z,3.126
2023-05-10T05:13:49.198Z,3.195
2023-05-10T05:14:50.346Z,3.248
2023-05-10T05:15:53.305Z,3.282
2023-05-10T05:16:54.975Z,3.229
2023-05-10T05:17:56.333Z,3.298
2023-05-10T05:18:56.765Z,3.42
2023-05-10T05:19:57.282Z,3.488
2023-05-10T05:20:58.697Z,3.334
2023-05-10T05:22:00.063Z,3.317
2023-05-10T05:23:00.625Z,3.378
2023-05-10T05:24:01.150Z,3.421
2023-05-10T05:25:01.762Z,3.356
2023-05-10T05:26:03.971Z,3.361
2023-05-10T05:27:04.660Z,3.431
2023-05-10T05:28:06.597Z,3.543
2023-05-10T05:29:06.937Z,3.422
2023-05-10T05:30:08.040Z,3.509
2023-05-10T05:31:08.394Z,3.414
2023-05-10T05:32:09.823Z,3.293
2023-05-10T05:33:10.219Z,3.343
2023-05-10T05:34:12.041Z,3.552
2023-05-10T05:35:12.305Z,3.562
2023-05-10T05:36:12.807Z,3.605
2023-05-10T05:37:13.244Z,3.413
2023-05-10T05:38:15.324Z,3.396
2023-05-10T05:39:15.697Z,3.359
2023-05-10T05:40:16.900Z,3.412
2023-05-10T05:41:16.831Z,3.395
2023-05-10T05:42:18.352Z,3.448
2023-05-10T05:43:20.407Z,3.553
2023-05-10T05:44:20.783Z,3.56
2023-05-10T05:45:21.534Z,3.499
2023-05-10T05:46:22.528Z,3.506
2023-05-10T05:47:21.789Z,3.639
2023-05-10T05:48:23.699Z,3.745
2023-05-10T05:49:24.182Z,3.665
2023-05-10T05:50:24.455Z,3.627
2023-05-10T05:51:24.571Z,3.819
2023-05-10T05:52:25.677Z,3.705
2023-05-10T05:53:26.695Z,3.683
2023-05-10T05:54:25.965Z,3.58
2023-05-10T05:55:26.852Z,3.705
2023-05-10T05:56:26.648Z,3.601
2023-05-10T05:57:29.226Z,3.45
2023-05-10T05:58:29.933Z,3.475
2023-05-10T05:59:29.919Z,3.31
2023-05-10T06:00:31.240Z,3.296
2023-05-10T06:01:32.591Z,3.254
2023-05-10T06:02:33.152Z,3.343
2023-05-10T06:03:34.510Z,3.309
2023-05-10T06:04:36.365Z,3.291
2023-05-10T06:05:36.492Z,3.123
2023-05-10T06:06:37.366Z,3.14
2023-05-10T06:07:40.193Z,3.02
2023-05-10T06:08:41.621Z,3.134
2023-05-10T06:09:42.321Z,3.158
2023-05-10T06:10:44.161Z,3.136
2023-05-10T06:11:43.651Z,2.96
2023-05-10T06:12:45.981Z,2.931
2023-05-10T06:13:48.178Z,2.726
2023-05-10T06:14:49.823Z,2.579
2023-05-10T06:15:50.106Z,2.418
2023-05-10T06:16:51.753Z,2.406
2023-05-10T06:17:51.631Z,2.23
2023-05-10T06:18:54.578Z,2.055
2023-05-10T06:19:55.099Z,2.06
2023-05-10T06:20:57.134Z,1.96
2023-05-10T06:21:57.713Z,1.899
2023-05-10T06:22:59.073Z,1.695
2023-05-10T06:24:01.664Z,1.892
2023-05-10T06:25:02.543Z,1.61
2023-05-10T06:26:05.381Z,1.494
2023-05-10T06:27:06.086Z,1.548
2023-05-10T06:28:08.258Z,1.494
2023-05-10T06:29:08.626Z,1.554
2023-05-10T06:30:13.282Z,1.598
2023-05-10T06:31:11.476Z,1.474
2023-05-10T06:32:14.077Z,1.355
2023-05-10T06:33:13.919Z,1.495
2023-05-10T06:34:15.472Z,1.407
2023-05-10T06:35:16.526Z,1.22
2023-05-10T06:36:16.974Z,1.341
2023-05-10T06:37:16.507Z,1.377
2023-05-10T06:38:18.168Z,1.318
2023-05-10T06:39:18.265Z,1.347
2023-05-10T06:40:19.108Z,1.288
2023-05-10T06:41:19.298Z,1.161
2023-05-10T06:42:20.861Z,1.222
2023-05-10T06:43:21.702Z,1.247
2023-05-10T06:44:22.621Z,1.434
2023-05-10T06:45:23.687Z,1.428
2023-05-10T06:46:23.164Z,1.201
2023-05-10T06:47:24.060Z,1.423
2023-05-10T06:48:25.580Z,1.255
2023-05-10T06:49:25.681Z,1.185
2023-05-10T06:50:28.413Z,1.233
2023-05-10T06:51:28.786Z,1.293
2023-05-10T06:52:31.431Z,1.364
2023-05-10T06:53:31.092Z,1.32
2023-05-10T06:54:33.698Z,1.414
2023-05-10T06:55:33.922Z,1.439
2023-05-10T06:56:35.608Z,1.364
2023-05-10T06:57:36.219Z,1.417
2023-05-10T06:58:35.912Z,1.371
2023-05-10T06:59:36.856Z,0.9302
2023-05-10T07:00:36.907Z,0.9804
2023-05-10T07:01:38.794Z,1.143
2023-05-10T07:02:39.054Z,1.096
2023-05-10T07:03:41.386Z,1.114
2023-05-10T07:04:41.583Z,1.01
2023-05-10T07:05:42.598Z,1.174
2023-05-10T07:06:43.404Z,0.9432
2023-05-10T07:07:44.215Z,1.001
2023-05-10T07:08:45.515Z,1.135
2023-05-10T07:09:47.044Z,1.086
2023-05-10T07:10:48.516Z,1.2
2023-05-10T07:11:48.294Z,1.336
2023-05-10T07:12:50.402Z,1.082
2023-05-10T07:13:50.915Z,0.9745
2023-05-10T07:14:51.943Z,0.9077
2023-05-10T07:15:53.356Z,1.033
2023-05-10T07:16:54.517Z,1.228
2023-05-10T07:17:56.027Z,1.195
2023-05-10T07:18:56.318Z,1.17
2023-05-10T07:19:59.029Z,0.9863
2023-05-10T07:20:58.529Z,1.204
2023-05-10T07:22:00.515Z,1.13
2023-05-10T07:23:02.228Z,1.064
2023-05-10T07:24:03.096Z,1.222
2023-05-10T07:25:03.920Z,1.091
2023-05-10T07:26:03.904Z,1.032
2023-05-10T07:27:06.130Z,0.8995
2023-05-10T07:28:06.143Z,0.8995
2023-05-10T07:29:06.795Z,1.172
2023-05-10T07:30:08.920Z,1.32
2023-05-10T07:31:09.676Z,1.278
2023-05-10T07:32:10.648Z,1.146
2023-05-10T07:33:10.702Z,0.9015
2023-05-10T07:34:10.959Z,1.139
2023-05-10T07:35:12.180Z,1.251
2023-05-10T07:36:14.684Z,1.307
2023-05-10T07:37:14.813Z,1.157
2023-05-10T07:38:15.585Z,1.005
2023-05-10T07:39:24.417Z,0.9973
2023-05-10T07:40:16.317Z,1.103
2023-05-10T07:41:18.360Z,1.035
2023-05-10T07:42:20.126Z,1.15
2023-05-10T07:43:21.297Z,1.372
2023-05-10T07:44:23.425Z,1.552
2023-05-10T07:45:23.939Z,1.471
2023-05-10T07:46:25.911Z,1.361
2023-05-10T07:47:27.919Z,1.178
2023-05-10T07:48:28.250Z,1.189
2023-05-10T07:49:30.078Z,1.302
2023-05-10T07:50:30.811Z,1.387
2023-05-10T07:51:31.102Z,1.064
2023-05-10T07:52:32.063Z,1.058
2023-05-10T07:53:33.081Z,1.099
2023-05-10T07:54:34.613Z,1.183
2023-05-10T07:55:35.083Z,1.581
2023-05-10T07:56:36.218Z,1.455
2023-05-10T07:57:37.484Z,1.733
2023-05-10T07:58:39.007Z,1.728
2023-05-10T07:59:39.740Z,2.011
2023-05-10T08:00:41.718Z,2.112
2023-05-10T08:01:43.062Z,1.875
2023-05-10T08:02:43.293Z,2.324
2023-05-10T08:03:45.663Z,2.357
2023-05-10T08:04:46.701Z,2.462
2023-05-10T08:05:46.635Z,2.77
2023-05-10T08:06:48.586Z,3.166
2023-05-10T08:07:50.656Z,3.102
2023-05-10T08:08:50.840Z,3.095
2023-05-10T08:09:52.521Z,2.907
2023-05-10T08:10:55.237Z,2.905
2023-05-10T08:11:55.029Z,3.006
2023-05-10T08:12:55.233Z,2.994
2023-05-10T08:13:55.472Z,2.778
2023-05-10T08:14:56.820Z,3.095
2023-05-10T08:15:57.087Z,3.222
2023-05-10T08:16:58.330Z,3.094
2023-05-10T08:17:59.472Z,3.169
2023-05-10T08:19:00.599Z,2.899
2023-05-10T08:20:02.240Z,2.687
2023-05-10T08:21:02.167Z,2.656
2023-05-10T08:22:04.210Z,2.892
2023-05-10T08:23:05.045Z,3.298
2023-05-10T08:24:06.097Z,3.405
2023-05-10T08:25:06.997Z,3.254
2023-05-10T08:26:08.312Z,3.444
2023-05-10T08:27:09.712Z,3.653
2023-05-10T08:28:11.928Z,3.722
2023-05-10T08:29:10.636Z,3.804
2023-05-10T08:30:13.019Z,3.695
2023-05-10T08:31:13.814Z,3.802
2023-05-10T08:32:15.159Z,3.818
2023-05-10T08:33:16.552Z,3.838
2023-05-10T08:34:17.400Z,3.675
2023-05-10T08:35:19.030Z,3.906
2023-05-10T08:36:20.741Z,4.508
2023-05-10T08:37:20.894Z,4.086
2023-05-10T08:38:21.725Z,4.242
2023-05-10T08:39:30.261Z,4.158
2023-05-10T08:40:24.304Z,4.201
2023-05-10T08:41:25.730Z,4.304
2023-05-10T08:42:26.636Z,4.248
2023-05-10T08:43:27.848Z,4.132
2023-05-10T08:44:28.354Z,3.703
2023-05-10T08:45:29.791Z,3.787
2023-05-10T08:46:31.969Z,4.006
2023-05-10T08:47:33.133Z,3.947
2023-05-10T08:48:34.218Z,4.008
2023-05-10T08:49:36.098Z,3.956
2023-05-10T08:50:38.171Z,4.19
2023-05-10T08:51:39.722Z,4.437
2023-05-10T08:52:39.754Z,4.345
2023-05-10T08:53:41.383Z,4.425
2023-05-10T08:54:43.785Z,4.846
2023-05-10T08:55:45.644Z,5.09
2023-05-10T08:56:46.896Z,5.05
2023-05-10T08:57:46.564Z,5.468
2023-05-10T08:58:46.163Z,5.446
2023-05-10T08:59:47.144Z,5.631
2023-05-10T09:00:47.794Z,5.514
2023-05-10T09:01:48.659Z,5.554
2023-05-10T09:02:48.831Z,5.82
2023-05-10T09:03:51.002Z,5.442
2023-05-10T09:04:52.496Z,5.448
2023-05-10T09:05:52.564Z,5.497
2023-05-10T09:06:53.652Z,5.971
2023-05-10T09:07:54.521Z,5.976
2023-05-10T09:08:55.103Z,5.942
2023-05-10T09:09:56.093Z,6.611
2023-05-10T09:10:56.808Z,6.686
2023-05-10T09:11:57.604Z,6.362
2023-05-10T09:12:59.332Z,6.111
2023-05-10T09:13:58.997Z,6.539
2023-05-10T09:14:59.215Z,6.704
2023-05-10T09:16:04.426Z,7.053
2023-05-10T09:17:00.608Z,6.962
2023-05-10T09:18:01.061Z,6.708
2023-05-10T09:19:02.410Z,6.824
2023-05-10T09:20:04.489Z,6.964
2023-05-10T09:21:06.858Z,7.458
2023-05-10T09:22:08.265Z,7.372
2023-05-10T09:23:10.699Z,7.179
2023-05-10T09:24:11.666Z,7.259
2023-05-10T09:25:11.937Z,7.318
2023-05-10T09:26:14.622Z,6.85
2023-05-10T09:27:14.051Z,7.17
2023-05-10T09:28:15.876Z,7.155
2023-05-10T09:29:17.467Z,7.187
2023-05-10T09:30:17.259Z,6.959
2023-05-10T09:31:19.345Z,6.842
2023-05-10T09:32:21.694Z,7.227
2023-05-10T09:33:23.701Z,7.293
2023-05-10T09:34:25.065Z,7.22
2023-05-10T09:35:29.435Z,7.309
2023-05-10T09:36:29.127Z,6.9
2023-05-10T09:37:29.537Z,7.187
2023-05-10T09:38:30.967Z,7.448
2023-05-10T09:39:32.736Z,7.384
2023-05-10T09:40:33.431Z,7.457
2023-05-10T09:41:35.371Z,7.334
2023-05-10T09:42:37.678Z,7.474
2023-05-10T09:43:38.101Z,7.615
2023-05-10T09:44:38.310Z,7.706
2023-05-10T09:45:40.127Z,7.671
2023-05-10T09:46:41.315Z,7.82
2023-05-10T09:47:43.412Z,8.046
2023-05-10T09:48:45.002Z,8.006
2023-05-10T09:49:47.185Z,8.29
2023-05-10T09:50:48.727Z,8.941
2023-05-10T09:51:48.811Z,8.568
2023-05-10T09:52:49.851Z,8.168
2023-05-10T09:53:53.045Z,8.294
2023-05-10T09:54:54.711Z,8.364
2023-05-10T09:55:57.036Z,8.706
2023-05-10T09:56:57.221Z,8.349
2023-05-10T09:58:00.345Z,8.319
2023-05-10T09:59:01.327Z,8.535
2023-05-10T10:00:02.272Z,8.003
2023-05-10T10:01:05.194Z,8.642
2023-05-10T10:02:06.140Z,8.515
2023-05-10T10:03:06.665Z,8.516
2023-05-10T10:04:08.559Z,8.754
2023-05-10T10:05:10.474Z,8.25
2023-05-10T10:06:26.383Z,8.515
2023-05-10T10:07:14.419Z,8.813
2023-05-10T10:08:16.912Z,8.916
2023-05-10T10:09:18.663Z,8.592
2023-05-10T10:10:19.339Z,8.807
2023-05-10T10:11:20.709Z,8.802
2023-05-10T10:12:20.689Z,8.586
2023-05-10T10:13:22.078Z,8.826
2023-05-10T10:14:23.776Z,8.997
2023-05-10T10:15:24.648Z,8.881
2023-05-10T10:16:26.009Z,8.689
2023-05-10T10:17:26.345Z,8.785
2023-05-10T10:18:28.868Z,8.861
2023-05-10T10:19:29.798Z,8.951
2023-05-10T10:20:32.015Z,8.676
2023-05-10T10:21:33.232Z,8.923
2023-05-10T10:22:34.838Z,9.298
2023-05-10T10:23:37.156Z,9.335
2023-05-10T10:24:36.577Z,9.238
2023-05-10T10:25:37.336Z,9.272
2023-05-10T10:26:37.410Z,9.471
2023-05-10T10:27:39.304Z,9.495
2023-05-10T10:28:40.426Z,9.981
2023-05-10T10:29:41.477Z,9.964
2023-05-10T10:30:42.788Z,10.07
2023-05-10T10:31:44.359Z,10.07
2023-05-10T10:32:44.890Z,9.829
2023-05-10T10:33:48.227Z,9.979
2023-05-10T10:34:48.408Z,9.713
2023-05-10T10:35:50.317Z,9.939
2023-05-10T10:36:49.909Z,10
2023-05-10T10:37:52.380Z,10.14
2023-05-10T10:38:53.544Z,9.752
2023-05-10T10:39:56.045Z,9.903
2023-05-10T10:40:57.900Z,10.36
2023-05-10T10:41:58.441Z,10.55
2023-05-10T10:43:01.034Z,10.73
2023-05-10T10:44:01.704Z,10.74
2023-05-10T10:45:03.117Z,10.47
2023-05-10T10:46:06.251Z,10.26
2023-05-10T10:47:07.637Z,10.49
2023-05-10T10:48:07.794Z,10.67
2023-05-10T10:49:08.526Z,11.21
2023-05-10T10:50:10.269Z,10.45
2023-05-10T10:51:13.022Z,10.45
2023-05-10T10:52:12.540Z,10.34
2023-05-10T10:53:13.897Z,10.69
2023-05-10T10:54:15.384Z,10.31
2023-05-10T10:55:16.988Z,10.72
2023-05-10T10:56:16.812Z,10.2
2023-05-10T10:57:19.147Z,10.07
2023-05-10T10:58:20.639Z,10.08
2023-05-10T10:59:22.684Z,10.64
2023-05-10T11:00:23.102Z,10.62
2023-05-10T11:01:24.910Z,10.65
2023-05-10T11:02:25.298Z,11.16
2023-05-10T11:03:25.897Z,10.96
2023-05-10T11:04:27.590Z,11.07
2023-05-10T11:05:27.748Z,11.09
2023-05-10T11:06:28.874Z,11.36
2023-05-10T11:07:04.354Z,3.813
2023-05-10T11:08:04.368Z,11.16
2023-05-10T11:09:04.390Z,10.71
2023-05-10T11:10:04.373Z,10.4
2023-05-10T11:11:04.507Z,10.52
2023-05-10T11:12:04.381Z,10.89
2023-05-10T11:13:04.387Z,11.13
2023-05-10T11:14:04.396Z,11.75
2023-05-10T11:15:04.400Z,11.83
2023-05-10T11:16:04.416Z,11.65
2023-05-10T11:17:04.472Z,11.55
2023-05-10T11:18:04.435Z,11.72
2023-05-10T11:19:04.621Z,11.34
2023-05-10T11:20:04.430Z,10.83
2023-05-10T11:21:04.437Z,11.5
2023-05-10T11:22:04.450Z,11.81
2023-05-10T11:23:04.459Z,11.51
2023-05-10T11:24:04.497Z,11.43
2023-05-10T11:25:04.470Z,11.06
2023-05-10T11:26:04.478Z,10.98
2023-05-10T11:27:04.499Z,11.31
2023-05-10T11:28:04.512Z,11.63
2023-05-10T11:29:04.514Z,12.23
2023-05-10T11:30:05.123Z,12.31
2023-05-10T11:31:04.538Z,11.99
2023-05-10T11:32:04.534Z,11.94
2023-05-10T11:33:04.560Z,11.73
2023-05-10T11:34:04.574Z,11.44
2023-05-10T11:35:04.559Z,11.38
2023-05-10T11:36:04.587Z,12.16
2023-05-10T11:37:04.598Z,11.78
2023-05-10T11:38:04.602Z,11.89
2023-05-10T11:39:04.607Z,11.54
2023-05-10T11:40:04.608Z,11.62
2023-05-10T11:41:04.613Z,11.35
2023-05-10T11:42:04.682Z,11.07
2023-05-10T11:43:04.632Z,11.74
2023-05-10T11:44:04.661Z,11.31
2023-05-10T11:45:04.666Z,12.2
2023-05-10T11:46:04.707Z,12.18
2023-05-10T11:47:04.678Z,12.53
2023-05-10T11:48:04.758Z,12.15
2023-05-10T11:49:04.683Z,11.98
2023-05-10T11:50:04.701Z,11.43
2023-05-10T11:51:04.695Z,11.77
2023-05-10T11:52:04.706Z,12.01
2023-05-10T11:53:04.716Z,11.82
2023-05-10T11:54:04.714Z,11.7
2023-05-10T11:55:04.735Z,10.99
2023-05-10T11:56:04.740Z,10.5
2023-05-10T11:57:04.745Z,10.56
2023-05-10T11:58:04.756Z,10.09
2023-05-10T11:59:04.754Z,10.03
2023-05-10T12:00:04.773Z,10.65
2023-05-10T12:01:04.803Z,10.36
2023-05-10T12:02:04.788Z,11.2
2023-05-10T12:03:04.863Z,10.82
2023-05-10T12:04:04.965Z,10.9
2023-05-10T12:05:05.867Z,10.95
2023-05-10T12:06:04.825Z,10.93
2023-05-10T12:07:04.818Z,10.7
2023-05-10T12:08:04.832Z,10.46
2023-05-10T12:09:04.849Z,10.92
2023-05-10T12:10:04.855Z,10.07
2023-05-10T12:11:04.864Z,10.22
2023-05-10T12:12:04.882Z,10.03
2023-05-10T12:13:04.880Z,10.11
2023-05-10T12:14:04.907Z,9.223
2023-05-10T12:15:04.905Z,9.37
2023-05-10T12:16:04.927Z,9.74
2023-05-10T12:17:04.913Z,9.769
2023-05-10T12:18:04.961Z,10.01
2023-05-10T12:19:05.034Z,10.65
2023-05-10T12:20:04.942Z,10.3
2023-05-10T12:21:04.945Z,9.582
2023-05-10T12:22:04.969Z,9.77
2023-05-10T12:23:04.958Z,10.22
2023-05-10T12:24:04.997Z,9.993
2023-05-10T12:25:04.985Z,9.8
2023-05-10T12:26:05.003Z,9.745
2023-05-10T12:27:05.034Z,9.745
2023-05-10T12:28:05.040Z,9.21
2023-05-10T12:29:05.042Z,9.714
2023-05-10T12:30:05.061Z,9.392
2023-05-10T12:31:05.068Z,8.816
2023-05-10T12:32:05.103Z,9.238
2023-05-10T12:33:05.102Z,8.556
2023-05-10T12:34:05.094Z,8.788
2023-05-10T12:35:05.103Z,8.568
2023-05-10T12:36:05.109Z,8.975
2023-05-10T12:37:05.144Z,8.612
2023-05-10T12:38:05.138Z,9.065
2023-05-10T12:39:05.156Z,9.428
2023-05-10T12:40:05.165Z,9.314
2023-05-10T12:41:05.213Z,9.58
2023-05-10T12:42:05.180Z,8.882
2023-05-10T12:43:05.218Z,8.962
2023-05-10T12:44:05.203Z,9.554
2023-05-10T12:45:05.220Z,8.905
2023-05-10T12:46:05.267Z,8.993
2023-05-10T12:47:05.246Z,8.276
2023-05-10T12:48:05.274Z,7.708
2023-05-10T12:49:09.518Z,7.54
2023-05-10T12:50:05.270Z,7.685
2023-05-10T12:51:05.285Z,8.645
2023-05-10T12:52:05.312Z,9.026
2023-05-10T12:53:05.303Z,8.205
2023-05-10T12:54:05.318Z,7.881
2023-05-10T12:55:05.368Z,8.487
2023-05-10T12:56:05.357Z,8.487
2023-05-10T12:57:05.362Z,8.506
2023-05-10T12:58:05.379Z,8.695
2023-05-10T12:59:05.408Z,8.205
2023-05-10T13:00:05.408Z,8.539
2023-05-10T13:01:05.495Z,8.508
2023-05-10T13:02:05.456Z,8.675
2023-05-10T13:03:05.458Z,8.243
2023-05-10T13:04:05.490Z,7.917
2023-05-10T13:05:05.577Z,8.275
2023-05-10T13:06:05.490Z,7.801
2023-05-10T13:07:05.500Z,7.892
2023-05-10T13:08:05.518Z,7.917